Flight Track Log - Related Links

Times and Time Zones

All times are in EDT time to prevent confusion due to time zone crossing. See the EJA820 flight status page for this flight to view local times or setup timezone preferences in your user account.

Time Position Orientation Groundspeed Altitude Reporting Facility
EDT Latitude Longitude Course Direction KTS MPH feet Rate Location/Type
Fri 07:37:13 PM 33.9500 -83.9833 129° Southeast 202 232 2,500  Level Atlanta TRACON
Fri 07:38:13 PM 33.9167 -83.9333 129° Southeast 232 267 5,900 2,950 Climbing Atlanta TRACON
Fri 07:39:13 PM 33.8667 -83.8500 126° Southeast 298 343 8,400 2,357 Climbing Atlanta TRACON
Fri 07:40:05 PM 33.8794 -83.7711 79° East 326 375 10,300 2,196 Climbing Atlanta Center
Fri 07:41:05 PM 33.8981 -83.6458 80° East 358 412 12,500 2,600 Climbing Atlanta Center
Fri 07:42:05 PM 33.9183 -83.5106 80° East 371 427 15,500 2,200 Climbing Atlanta Center
Fri 07:43:05 PM 33.9344 -83.3803 81° East 377 434 16,900 1,700 Climbing Atlanta Center
Fri 07:44:05 PM 33.9525 -83.2425 81° East 401 461 18,900 1,950 Climbing Atlanta Center
Fri 07:45:05 PM 33.9869 -83.1119 72° East 415 478 20,800 1,050 Climbing Atlanta Center
Fri 07:46:05 PM 34.0844 -83.0231 37° Northeast 415 478 21,000 100 Climbing Atlanta Center
Fri 07:47:05 PM 34.1881 -82.9589 27° Northeast 420 483 21,000 50 Level Atlanta Center
Fri 07:48:05 PM 34.3003 -82.8972 24° Northeast 420 483 21,100  Climbing Atlanta Center
Fri 07:49:05 PM 34.4042 -82.8378 25° Northeast 420 483 21,000 -50 Descending Atlanta Center
Fri 07:50:05 PM 34.5142 -82.7783 24° Northeast 414 476 21,000  Level Atlanta Center
Fri 07:51:05 PM 34.6178 -82.7186 25° Northeast 419 482 21,000  Level Atlanta Center
Fri 07:52:05 PM 34.7256 -82.6564 25° Northeast 419 482 21,000  Level Atlanta Center
Fri 07:53:05 PM 34.8336 -82.5989 24° Northeast 419 482 21,000  Level Atlanta Center
Fri 07:54:05 PM 34.9411 -82.5361 26° Northeast 419 482 21,000  Level Atlanta Center
Fri 07:55:05 PM 35.0489 -82.4708 26° Northeast 424 488 21,000  Level Atlanta Center
Fri 07:56:05 PM 35.1589 -82.4128 23° Northeast 424 488 21,000  Level Atlanta Center
Fri 07:57:05 PM 35.2706 -82.3497 25° Northeast 424 488 21,000 -1,250 Level Atlanta Center
Fri 07:58:05 PM 35.3719 -82.2914 25° Northeast 413 475 18,500 -2,850 Descending Atlanta Center
Fri 07:59:05 PM 35.4414 -82.1856 51° Northeast 385 443 15,300 -2,500 Descending Atlanta Center
Fri 08:00:05 PM 35.4875 -82.0672 64° Northeast 390 449 13,500 -2,050 Descending Atlanta Center
Fri 08:01:05 PM 35.5294 -81.9514 66° East 376 433 11,200 -2,200 Descending Atlanta Center
Fri 08:02:05 PM 35.5694 -81.8481 65° Northeast 352 405 9,100 -2,150 Descending Atlanta Center
Fri 08:03:05 PM 35.6072 -81.7475 65° Northeast 321 369 6,900 -2,176 Descending Atlanta Center
Fri 08:03:47 PM 35.6331 -81.6831 64° Northeast 306 352 5,400 -1,900 Descending Atlanta Center
Fri 08:04:05 PM 35.6389 -81.6622 71° East 308 354 5,000 -462 Descending Atlanta Center
Fri 08:05:05 PM 35.6728 -81.5744 65° Northeast 292 336 4,800 -700 Descending Atlanta Center
Fri 08:06:05 PM 35.7006 -81.5044 64° Northeast 253 291 3,600 -1,000 Descending Atlanta Center
Fri 08:07:05 PM 35.7325 -81.4369 60° Northeast 226 260 2,800 -400 Descending Atlanta Center
Fri 08:08:05 PM 35.7750 -81.3767 49° Northeast 212 244 2,800 -450 Level Atlanta Center
Fri 08:09:05 PM 35.7597 -81.3542 130° Southeast 101 116 1,900 -750 Descending Atlanta Center
Fri 08:10:05 PM 35.7436 -81.3728 223° Southwest 66 76 1,300 -283 Descending Atlanta Center
Fri 08:11:12 PM 35.7397 -81.3908 255° West 90 104 1,300  Level Atlanta Center

Login

Don't have an account? Register now (free) for customized features, flight alerts, and more!